sensor_id;sensor_type;location;lat;lon;timestamp;P1;durP1;ratioP1;P2;durP2;ratioP2
19569;SDS011;9931;51.458;7.256;2023-12-28T00:00:15;9.43;;;1.20;;
19569;SDS011;9931;51.458;7.256;2023-12-28T00:02:40;8.98;;;1.13;;
19569;SDS011;9931;51.458;7.256;2023-12-28T00:05:06;15.18;;;1.50;;
19569;SDS011;9931;51.458;7.256;2023-12-28T00:07:31;15.82;;;1.45;;
19569;SDS011;9931;51.458;7.256;2023-12-28T00:09:56;13.63;;;1.37;;
19569;SDS011;9931;51.458;7.256;2023-12-28T00:12:21;14.82;;;1.42;;
19569;SDS011;9931;51.458;7.256;2023-12-28T00:14:47;18.80;;;1.80;;
19569;SDS011;9931;51.458;7.256;2023-12-28T00:17:13;22.52;;;2.03;;
19569;SDS011;9931;51.458;7.256;2023-12-28T00:19:38;21.45;;;2.08;;
19569;SDS011;9931;51.458;7.256;2023-12-28T00:22:03;15.67;;;1.53;;
19569;SDS011;9931;51.458;7.256;2023-12-28T00:24:28;4.28;;;0.80;;
19569;SDS011;9931;51.458;7.256;2023-12-28T00:26:53;9.50;;;1.10;;
19569;SDS011;9931;51.458;7.256;2023-12-28T00:29:18;13.20;;;1.42;;
19569;SDS011;9931;51.458;7.256;2023-12-28T00:31:44;19.40;;;1.93;;
19569;SDS011;9931;51.458;7.256;2023-12-28T00:34:09;15.13;;;1.55;;
19569;SDS011;9931;51.458;7.256;2023-12-28T00:36:34;17.53;;;1.70;;
19569;SDS011;9931;51.458;7.256;2023-12-28T00:38:59;21.45;;;1.92;;
19569;SDS011;9931;51.458;7.256;2023-12-28T00:41:24;14.87;;;1.50;;
19569;SDS011;9931;51.458;7.256;2023-12-28T00:43:49;17.27;;;1.63;;
19569;SDS011;9931;51.458;7.256;2023-12-28T00:46:15;13.40;;;1.42;;
19569;SDS011;9931;51.458;7.256;2023-12-28T00:48:40;13.20;;;1.40;;
19569;SDS011;9931;51.458;7.256;2023-12-28T00:51:05;20.00;;;5.53;;
19569;SDS011;9931;51.458;7.256;2023-12-28T00:53:30;17.07;;;3.30;;
19569;SDS011;9931;51.458;7.256;2023-12-28T00:55:56;14.77;;;3.50;;
19569;SDS011;9931;51.458;7.256;2023-12-28T00:58:21;18.90;;;3.33;;
19569;SDS011;9931;51.458;7.256;2023-12-28T01:00:46;21.92;;;2.03;;
19569;SDS011;9931;51.458;7.256;2023-12-28T01:03:11;23.17;;;2.20;;
19569;SDS011;9931;51.458;7.256;2023-12-28T01:05:36;18.73;;;1.92;;
19569;SDS011;9931;51.458;7.256;2023-12-28T01:08:02;15.43;;;1.67;;
19569;SDS011;9931;51.458;7.256;2023-12-28T01:10:27;18.70;;;2.00;;
19569;SDS011;9931;51.458;7.256;2023-12-28T01:12:52;4.68;;;0.98;;
19569;SDS011;9931;51.458;7.256;2023-12-28T01:15:17;18.00;;;1.93;;
19569;SDS011;9931;51.458;7.256;2023-12-28T01:17:45;19.67;;;1.98;;
19569;SDS011;9931;51.458;7.256;2023-12-28T01:20:10;17.27;;;1.93;;
19569;SDS011;9931;51.458;7.256;2023-12-28T01:22:35;20.75;;;2.17;;
19569;SDS011;9931;51.458;7.256;2023-12-28T01:25:00;19.47;;;1.93;;
19569;SDS011;9931;51.458;7.256;2023-12-28T01:27:26;18.83;;;2.17;;
19569;SDS011;9931;51.458;7.256;2023-12-28T01:29:51;7.87;;;1.27;;
19569;SDS011;9931;51.458;7.256;2023-12-28T01:32:16;9.00;;;1.40;;
19569;SDS011;9931;51.458;7.256;2023-12-28T01:34:41;18.33;;;2.03;;
19569;SDS011;9931;51.458;7.256;2023-12-28T01:37:07;20.50;;;2.25;;
19569;SDS011;9931;51.458;7.256;2023-12-28T01:39:33;20.25;;;2.25;;
19569;SDS011;9931;51.458;7.256;2023-12-28T01:41:58;62.90;;;5.25;;
19569;SDS011;9931;51.458;7.256;2023-12-28T01:44:23;19.30;;;2.20;;
19569;SDS011;9931;51.458;7.256;2023-12-28T01:46:48;24.15;;;2.58;;
19569;SDS011;9931;51.458;7.256;2023-12-28T01:49:14;17.02;;;2.13;;
19569;SDS011;9931;51.458;7.256;2023-12-28T01:51:39;15.30;;;1.90;;
19569;SDS011;9931;51.458;7.256;2023-12-28T01:54:04;28.73;;;2.95;;
19569;SDS011;9931;51.458;7.256;2023-12-28T01:56:30;25.20;;;2.60;;
19569;SDS011;9931;51.458;7.256;2023-12-28T01:58:55;14.57;;;1.98;;
19569;SDS011;9931;51.458;7.256;2023-12-28T02:01:20;17.55;;;2.30;;
19569;SDS011;9931;51.458;7.256;2023-12-28T02:03:46;20.38;;;2.42;;
19569;SDS011;9931;51.458;7.256;2023-12-28T02:06:11;12.13;;;1.98;;
19569;SDS011;9931;51.458;7.256;2023-12-28T02:08:38;19.08;;;2.42;;
19569;SDS011;9931;51.458;7.256;2023-12-28T02:11:03;16.63;;;2.20;;
19569;SDS011;9931;51.458;7.256;2023-12-28T02:13:29;17.88;;;2.20;;
19569;SDS011;9931;51.458;7.256;2023-12-28T02:15:58;15.30;;;2.20;;
19569;SDS011;9931;51.458;7.256;2023-12-28T02:18:29;21.45;;;2.55;;
19569;SDS011;9931;51.458;7.256;2023-12-28T02:20:55;17.45;;;2.15;;
19569;SDS011;9931;51.458;7.256;2023-12-28T02:23:21;18.67;;;2.25;;
19569;SDS011;9931;51.458;7.256;2023-12-28T02:25:46;11.95;;;1.98;;
19569;SDS011;9931;51.458;7.256;2023-12-28T02:28:11;19.83;;;2.50;;
19569;SDS011;9931;51.458;7.256;2023-12-28T02:30:37;18.35;;;2.47;;
19569;SDS011;9931;51.458;7.256;2023-12-28T02:35:43;3.72;;;1.30;;
19569;SDS011;9931;51.458;7.256;2023-12-28T02:38:09;17.45;;;2.38;;
19569;SDS011;9931;51.458;7.256;2023-12-28T02:40:39;24.75;;;2.90;;
19569;SDS011;9931;51.458;7.256;2023-12-28T02:43:05;18.27;;;2.60;;
19569;SDS011;9931;51.458;7.256;2023-12-28T02:45:31;15.35;;;2.38;;
19569;SDS011;9931;51.458;7.256;2023-12-28T02:47:56;16.73;;;2.30;;
19569;SDS011;9931;51.458;7.256;2023-12-28T02:50:21;18.27;;;2.42;;
19569;SDS011;9931;51.458;7.256;2023-12-28T02:52:46;14.25;;;2.33;;
19569;SDS011;9931;51.458;7.256;2023-12-28T02:55:11;17.15;;;2.22;;
19569;SDS011;9931;51.458;7.256;2023-12-28T02:57:37;14.67;;;2.23;;
19569;SDS011;9931;51.458;7.256;2023-12-28T03:00:04;14.73;;;2.28;;
19569;SDS011;9931;51.458;7.256;2023-12-28T03:02:29;11.15;;;2.13;;
19569;SDS011;9931;51.458;7.256;2023-12-28T03:04:54;19.77;;;2.55;;
19569;SDS011;9931;51.458;7.256;2023-12-28T03:07:20;9.45;;;2.03;;
19569;SDS011;9931;51.458;7.256;2023-12-28T03:09:45;19.77;;;2.70;;
19569;SDS011;9931;51.458;7.256;2023-12-28T03:12:10;16.17;;;2.73;;
19569;SDS011;9931;51.458;7.256;2023-12-28T03:14:35;16.88;;;2.83;;
19569;SDS011;9931;51.458;7.256;2023-12-28T03:17:01;16.77;;;2.40;;
19569;SDS011;9931;51.458;7.256;2023-12-28T03:19:26;17.20;;;2.45;;
19569;SDS011;9931;51.458;7.256;2023-12-28T03:21:51;63.73;;;5.63;;
19569;SDS011;9931;51.458;7.256;2023-12-28T03:24:16;21.20;;;2.80;;
19569;SDS011;9931;51.458;7.256;2023-12-28T03:26:41;15.77;;;2.40;;
19569;SDS011;9931;51.458;7.256;2023-12-28T03:29:07;18.25;;;2.50;;
19569;SDS011;9931;51.458;7.256;2023-12-28T03:31:32;4.63;;;1.70;;
19569;SDS011;9931;51.458;7.256;2023-12-28T03:33:58;26.88;;;3.17;;
19569;SDS011;9931;51.458;7.256;2023-12-28T03:36:23;18.15;;;2.58;;
19569;SDS011;9931;51.458;7.256;2023-12-28T03:38:48;14.90;;;2.27;;
19569;SDS011;9931;51.458;7.256;2023-12-28T03:41:17;14.63;;;2.15;;
19569;SDS011;9931;51.458;7.256;2023-12-28T03:43:43;15.45;;;2.38;;
19569;SDS011;9931;51.458;7.256;2023-12-28T03:46:08;10.07;;;1.97;;
19569;SDS011;9931;51.458;7.256;2023-12-28T03:48:34;24.87;;;3.03;;
19569;SDS011;9931;51.458;7.256;2023-12-28T03:51:00;14.80;;;2.35;;
19569;SDS011;9931;51.458;7.256;2023-12-28T03:53:25;16.53;;;2.47;;
19569;SDS011;9931;51.458;7.256;2023-12-28T03:55:50;13.73;;;2.50;;
19569;SDS011;9931;51.458;7.256;2023-12-28T03:58:15;20.50;;;3.00;;
19569;SDS011;9931;51.458;7.256;2023-12-28T04:00:40;22.02;;;3.10;;
19569;SDS011;9931;51.458;7.256;2023-12-28T04:03:05;17.38;;;2.53;;
19569;SDS011;9931;51.458;7.256;2023-12-28T04:05:31;21.63;;;3.03;;
19569;SDS011;9931;51.458;7.256;2023-12-28T04:07:56;15.35;;;2.58;;
19569;SDS011;9931;51.458;7.256;2023-12-28T04:10:28;18.13;;;2.73;;
19569;SDS011;9931;51.458;7.256;2023-12-28T04:12:54;19.30;;;2.97;;
19569;SDS011;9931;51.458;7.256;2023-12-28T04:15:22;19.95;;;3.08;;
19569;SDS011;9931;51.458;7.256;2023-12-28T04:17:47;21.45;;;3.35;;
19569;SDS011;9931;51.458;7.256;2023-12-28T04:20:12;19.05;;;3.22;;
19569;SDS011;9931;51.458;7.256;2023-12-28T04:22:38;5.03;;;2.00;;
19569;SDS011;9931;51.458;7.256;2023-12-28T04:25:03;18.60;;;2.97;;
19569;SDS011;9931;51.458;7.256;2023-12-28T04:27:28;14.00;;;2.53;;
19569;SDS011;9931;51.458;7.256;2023-12-28T04:29:53;25.33;;;3.22;;
19569;SDS011;9931;51.458;7.256;2023-12-28T04:32:19;18.52;;;2.85;;
19569;SDS011;9931;51.458;7.256;2023-12-28T04:34:44;18.63;;;2.92;;
19569;SDS011;9931;51.458;7.256;2023-12-28T04:37:09;12.95;;;2.45;;
19569;SDS011;9931;51.458;7.256;2023-12-28T04:39:34;17.13;;;2.67;;
19569;SDS011;9931;51.458;7.256;2023-12-28T04:41:59;59.53;;;5.93;;
19569;SDS011;9931;51.458;7.256;2023-12-28T04:44:24;2.15;;;1.70;;
19569;SDS011;9931;51.458;7.256;2023-12-28T04:46:51;19.80;;;2.92;;
19569;SDS011;9931;51.458;7.256;2023-12-28T04:49:16;24.58;;;3.30;;
19569;SDS011;9931;51.458;7.256;2023-12-28T04:51:42;16.35;;;2.75;;
19569;SDS011;9931;51.458;7.256;2023-12-28T04:54:07;20.55;;;3.45;;
19569;SDS011;9931;51.458;7.256;2023-12-28T04:56:32;19.50;;;3.25;;
19569;SDS011;9931;51.458;7.256;2023-12-28T04:58:57;14.43;;;2.77;;
19569;SDS011;9931;51.458;7.256;2023-12-28T05:01:23;24.63;;;3.47;;
19569;SDS011;9931;51.458;7.256;2023-12-28T05:03:49;16.25;;;3.05;;
19569;SDS011;9931;51.458;7.256;2023-12-28T05:06:14;15.60;;;3.05;;
19569;SDS011;9931;51.458;7.256;2023-12-28T05:08:39;17.73;;;3.15;;
19569;SDS011;9931;51.458;7.256;2023-12-28T05:11:05;19.52;;;2.90;;
19569;SDS011;9931;51.458;7.256;2023-12-28T05:13:30;28.35;;;3.78;;
19569;SDS011;9931;51.458;7.256;2023-12-28T05:15:55;18.10;;;3.33;;
19569;SDS011;9931;51.458;7.256;2023-12-28T05:18:20;19.05;;;3.25;;
19569;SDS011;9931;51.458;7.256;2023-12-28T05:20:45;26.95;;;3.58;;
19569;SDS011;9931;51.458;7.256;2023-12-28T05:23:11;21.07;;;3.20;;
19569;SDS011;9931;51.458;7.256;2023-12-28T05:25:36;17.80;;;3.08;;
19569;SDS011;9931;51.458;7.256;2023-12-28T05:28:01;22.27;;;3.63;;
19569;SDS011;9931;51.458;7.256;2023-12-28T05:30:26;7.20;;;2.33;;
19569;SDS011;9931;51.458;7.256;2023-12-28T05:32:51;25.07;;;3.73;;
19569;SDS011;9931;51.458;7.256;2023-12-28T05:35:17;27.17;;;3.67;;
19569;SDS011;9931;51.458;7.256;2023-12-28T05:37:42;20.95;;;3.05;;
19569;SDS011;9931;51.458;7.256;2023-12-28T05:40:07;24.58;;;3.63;;
19569;SDS011;9931;51.458;7.256;2023-12-28T05:42:34;20.33;;;3.33;;
19569;SDS011;9931;51.458;7.256;2023-12-28T05:44:59;27.87;;;3.77;;
19569;SDS011;9931;51.458;7.256;2023-12-28T05:47:25;22.35;;;3.28;;
19569;SDS011;9931;51.458;7.256;2023-12-28T05:49:50;20.38;;;3.20;;
19569;SDS011;9931;51.458;7.256;2023-12-28T05:52:16;22.58;;;3.40;;
19569;SDS011;9931;51.458;7.256;2023-12-28T05:54:43;18.42;;;3.10;;
19569;SDS011;9931;51.458;7.256;2023-12-28T05:57:09;18.85;;;3.13;;
19569;SDS011;9931;51.458;7.256;2023-12-28T05:59:37;15.98;;;2.67;;
19569;SDS011;9931;51.458;7.256;2023-12-28T06:02:02;63.85;;;6.20;;
19569;SDS011;9931;51.458;7.256;2023-12-28T06:04:28;23.33;;;3.38;;
19569;SDS011;9931;51.458;7.256;2023-12-28T06:06:53;15.90;;;2.92;;
19569;SDS011;9931;51.458;7.256;2023-12-28T06:09:18;30.30;;;3.95;;
19569;SDS011;9931;51.458;7.256;2023-12-28T06:11:43;15.17;;;2.87;;
19569;SDS011;9931;51.458;7.256;2023-12-28T06:14:08;19.10;;;3.20;;
19569;SDS011;9931;51.458;7.256;2023-12-28T06:16:34;23.77;;;3.15;;
19569;SDS011;9931;51.458;7.256;2023-12-28T06:18:59;15.35;;;2.70;;
19569;SDS011;9931;51.458;7.256;2023-12-28T06:21:25;15.02;;;2.85;;
19569;SDS011;9931;51.458;7.256;2023-12-28T06:23:50;25.42;;;3.70;;
19569;SDS011;9931;51.458;7.256;2023-12-28T06:26:15;20.05;;;3.10;;
19569;SDS011;9931;51.458;7.256;2023-12-28T06:28:40;15.30;;;3.45;;
19569;SDS011;9931;51.458;7.256;2023-12-28T06:31:06;19.93;;;3.00;;
19569;SDS011;9931;51.458;7.256;2023-12-28T06:33:31;4.07;;;2.17;;
19569;SDS011;9931;51.458;7.256;2023-12-28T06:35:56;15.67;;;2.60;;
19569;SDS011;9931;51.458;7.256;2023-12-28T06:38:23;16.80;;;2.83;;
19569;SDS011;9931;51.458;7.256;2023-12-28T06:40:48;29.58;;;3.95;;
19569;SDS011;9931;51.458;7.256;2023-12-28T06:43:13;17.20;;;2.53;;
19569;SDS011;9931;51.458;7.256;2023-12-28T06:45:38;2.58;;;1.77;;
19569;SDS011;9931;51.458;7.256;2023-12-28T06:48:04;11.20;;;2.50;;
19569;SDS011;9931;51.458;7.256;2023-12-28T06:50:29;17.30;;;3.13;;
19569;SDS011;9931;51.458;7.256;2023-12-28T06:52:54;17.92;;;2.90;;
19569;SDS011;9931;51.458;7.256;2023-12-28T06:55:20;21.00;;;2.90;;
19569;SDS011;9931;51.458;7.256;2023-12-28T06:57:45;6.38;;;2.13;;
19569;SDS011;9931;51.458;7.256;2023-12-28T07:00:10;17.53;;;2.90;;
19569;SDS011;9931;51.458;7.256;2023-12-28T07:02:35;18.45;;;2.67;;
19569;SDS011;9931;51.458;7.256;2023-12-28T07:05:01;17.30;;;2.55;;
19569;SDS011;9931;51.458;7.256;2023-12-28T07:07:26;13.93;;;2.33;;
19569;SDS011;9931;51.458;7.256;2023-12-28T07:09:51;21.92;;;2.88;;
19569;SDS011;9931;51.458;7.256;2023-12-28T07:12:16;12.05;;;2.25;;
19569;SDS011;9931;51.458;7.256;2023-12-28T07:14:41;15.13;;;2.60;;
19569;SDS011;9931;51.458;7.256;2023-12-28T07:17:06;18.35;;;2.72;;
19569;SDS011;9931;51.458;7.256;2023-12-28T07:19:31;15.90;;;2.63;;
19569;SDS011;9931;51.458;7.256;2023-12-28T07:21:57;63.70;;;5.78;;
19569;SDS011;9931;51.458;7.256;2023-12-28T07:24:22;3.38;;;1.85;;
19569;SDS011;9931;51.458;7.256;2023-12-28T07:26:48;17.17;;;2.53;;
19569;SDS011;9931;51.458;7.256;2023-12-28T07:29:13;14.98;;;2.92;;
19569;SDS011;9931;51.458;7.256;2023-12-28T07:31:38;20.55;;;2.90;;
19569;SDS011;9931;51.458;7.256;2023-12-28T07:34:03;12.27;;;2.43;;
19569;SDS011;9931;51.458;7.256;2023-12-28T07:36:28;5.53;;;1.77;;
19569;SDS011;9931;51.458;7.256;2023-12-28T07:38:54;15.07;;;2.42;;
19569;SDS011;9931;51.458;7.256;2023-12-28T07:41:19;16.00;;;2.67;;
19569;SDS011;9931;51.458;7.256;2023-12-28T07:43:44;11.85;;;2.30;;
19569;SDS011;9931;51.458;7.256;2023-12-28T07:46:10;2.45;;;1.63;;
19569;SDS011;9931;51.458;7.256;2023-12-28T07:48:35;16.42;;;2.60;;
19569;SDS011;9931;51.458;7.256;2023-12-28T07:51:04;14.95;;;2.65;;
19569;SDS011;9931;51.458;7.256;2023-12-28T07:53:29;4.97;;;1.95;;
19569;SDS011;9931;51.458;7.256;2023-12-28T07:55:54;9.43;;;2.05;;
19569;SDS011;9931;51.458;7.256;2023-12-28T07:58:20;18.70;;;3.13;;
19569;SDS011;9931;51.458;7.256;2023-12-28T08:00:46;14.85;;;2.65;;
19569;SDS011;9931;51.458;7.256;2023-12-28T08:03:11;14.57;;;2.88;;
19569;SDS011;9931;51.458;7.256;2023-12-28T08:05:40;16.17;;;2.90;;
19569;SDS011;9931;51.458;7.256;2023-12-28T08:08:05;22.05;;;3.55;;
19569;SDS011;9931;51.458;7.256;2023-12-28T08:10:30;21.38;;;3.65;;
19569;SDS011;9931;51.458;7.256;2023-12-28T08:12:56;16.38;;;3.00;;
19569;SDS011;9931;51.458;7.256;2023-12-28T08:15:21;6.10;;;2.40;;
19569;SDS011;9931;51.458;7.256;2023-12-28T08:17:46;20.13;;;3.42;;
19569;SDS011;9931;51.458;7.256;2023-12-28T08:20:11;23.48;;;3.78;;
19569;SDS011;9931;51.458;7.256;2023-12-28T08:22:36;23.93;;;3.50;;
19569;SDS011;9931;51.458;7.256;2023-12-28T08:25:01;18.65;;;3.33;;
19569;SDS011;9931;51.458;7.256;2023-12-28T08:27:27;13.52;;;3.10;;
19569;SDS011;9931;51.458;7.256;2023-12-28T08:29:52;17.47;;;3.30;;
19569;SDS011;9931;51.458;7.256;2023-12-28T08:32:17;20.13;;;3.35;;
19569;SDS011;9931;51.458;7.256;2023-12-28T08:34:42;19.00;;;3.28;;
19569;SDS011;9931;51.458;7.256;2023-12-28T08:37:07;17.73;;;3.15;;
19569;SDS011;9931;51.458;7.256;2023-12-28T08:39:32;20.83;;;3.40;;
19569;SDS011;9931;51.458;7.256;2023-12-28T08:41:58;72.67;;;6.57;;
19569;SDS011;9931;51.458;7.256;2023-12-28T08:44:23;19.35;;;3.13;;
19569;SDS011;9931;51.458;7.256;2023-12-28T08:46:48;5.35;;;2.50;;
19569;SDS011;9931;51.458;7.256;2023-12-28T08:49:13;16.67;;;3.27;;
19569;SDS011;9931;51.458;7.256;2023-12-28T08:51:40;17.90;;;3.08;;
19569;SDS011;9931;51.458;7.256;2023-12-28T08:54:05;10.63;;;2.57;;
19569;SDS011;9931;51.458;7.256;2023-12-28T08:56:30;11.80;;;2.83;;
19569;SDS011;9931;51.458;7.256;2023-12-28T08:58:56;17.00;;;3.13;;
19569;SDS011;9931;51.458;7.256;2023-12-28T09:01:21;13.27;;;2.63;;
19569;SDS011;9931;51.458;7.256;2023-12-28T09:03:48;12.32;;;2.90;;
19569;SDS011;9931;51.458;7.256;2023-12-28T09:06:13;19.95;;;3.47;;
19569;SDS011;9931;51.458;7.256;2023-12-28T09:08:41;17.87;;;3.43;;
19569;SDS011;9931;51.458;7.256;2023-12-28T09:11:06;18.52;;;3.53;;
19569;SDS011;9931;51.458;7.256;2023-12-28T09:13:31;30.45;;;4.30;;
19569;SDS011;9931;51.458;7.256;2023-12-28T09:15:57;17.73;;;3.40;;
19569;SDS011;9931;51.458;7.256;2023-12-28T09:18:22;12.30;;;2.67;;
19569;SDS011;9931;51.458;7.256;2023-12-28T09:20:47;16.03;;;3.17;;
19569;SDS011;9931;51.458;7.256;2023-12-28T09:23:13;17.15;;;3.45;;
19569;SDS011;9931;51.458;7.256;2023-12-28T09:25:39;21.80;;;3.72;;
19569;SDS011;9931;51.458;7.256;2023-12-28T09:28:05;15.23;;;3.40;;
19569;SDS011;9931;51.458;7.256;2023-12-28T09:30:30;14.93;;;3.55;;
19569;SDS011;9931;51.458;7.256;2023-12-28T09:32:55;19.35;;;4.05;;
19569;SDS011;9931;51.458;7.256;2023-12-28T09:35:20;22.15;;;3.63;;
19569;SDS011;9931;51.458;7.256;2023-12-28T09:37:45;20.65;;;3.30;;
19569;SDS011;9931;51.458;7.256;2023-12-28T09:40:12;4.57;;;2.85;;
19569;SDS011;9931;51.458;7.256;2023-12-28T09:42:43;17.27;;;3.88;;
19569;SDS011;9931;51.458;7.256;2023-12-28T09:45:13;9.75;;;2.90;;
19569;SDS011;9931;51.458;7.256;2023-12-28T09:47:39;5.93;;;3.00;;
19569;SDS011;9931;51.458;7.256;2023-12-28T09:50:05;19.17;;;4.50;;
19569;SDS011;9931;51.458;7.256;2023-12-28T09:52:31;13.10;;;3.00;;
19569;SDS011;9931;51.458;7.256;2023-12-28T09:54:56;5.82;;;2.85;;
19569;SDS011;9931;51.458;7.256;2023-12-28T09:57:21;20.35;;;3.90;;
19569;SDS011;9931;51.458;7.256;2023-12-28T09:59:48;19.73;;;4.22;;
19569;SDS011;9931;51.458;7.256;2023-12-28T10:02:13;19.75;;;4.15;;
19569;SDS011;9931;51.458;7.256;2023-12-28T10:04:39;22.92;;;5.38;;
19569;SDS011;9931;51.458;7.256;2023-12-28T10:07:04;19.20;;;3.60;;
19569;SDS011;9931;51.458;7.256;2023-12-28T10:09:29;8.25;;;3.25;;
19569;SDS011;9931;51.458;7.256;2023-12-28T10:11:55;47.30;;;5.20;;
19569;SDS011;9931;51.458;7.256;2023-12-28T10:14:21;15.65;;;3.05;;
19569;SDS011;9931;51.458;7.256;2023-12-28T10:16:46;15.80;;;3.53;;
19569;SDS011;9931;51.458;7.256;2023-12-28T10:19:11;15.13;;;3.63;;
19569;SDS011;9931;51.458;7.256;2023-12-28T10:21:38;25.13;;;3.88;;
19569;SDS011;9931;51.458;7.256;2023-12-28T10:24:04;18.85;;;3.72;;
19569;SDS011;9931;51.458;7.256;2023-12-28T10:26:29;16.75;;;3.53;;
19569;SDS011;9931;51.458;7.256;2023-12-28T10:29:00;22.50;;;3.95;;
19569;SDS011;9931;51.458;7.256;2023-12-28T10:31:27;17.40;;;4.00;;
19569;SDS011;9931;51.458;7.256;2023-12-28T10:33:52;26.57;;;4.47;;
19569;SDS011;9931;51.458;7.256;2023-12-28T10:36:17;18.83;;;4.63;;
19569;SDS011;9931;51.458;7.256;2023-12-28T10:38:43;17.70;;;5.45;;
19569;SDS011;9931;51.458;7.256;2023-12-28T10:41:08;11.95;;;5.95;;
19569;SDS011;9931;51.458;7.256;2023-12-28T10:46:05;14.75;;;4.80;;
19569;SDS011;9931;51.458;7.256;2023-12-28T10:48:31;12.50;;;4.72;;
19569;SDS011;9931;51.458;7.256;2023-12-28T10:50:59;19.65;;;4.72;;
19569;SDS011;9931;51.458;7.256;2023-12-28T10:53:40;61.47;;;7.35;;
19569;SDS011;9931;51.458;7.256;2023-12-28T10:56:20;20.42;;;4.57;;
19569;SDS011;9931;51.458;7.256;2023-12-28T10:58:50;9.68;;;4.70;;
19569;SDS011;9931;51.458;7.256;2023-12-28T11:01:17;18.70;;;5.68;;
19569;SDS011;9931;51.458;7.256;2023-12-28T11:03:45;22.77;;;6.38;;
19569;SDS011;9931;51.458;7.256;2023-12-28T11:06:12;23.13;;;5.90;;
19569;SDS011;9931;51.458;7.256;2023-12-28T11:08:38;19.40;;;5.40;;
19569;SDS011;9931;51.458;7.256;2023-12-28T11:11:04;15.38;;;5.05;;
19569;SDS011;9931;51.458;7.256;2023-12-28T11:13:30;9.52;;;4.53;;
19569;SDS011;9931;51.458;7.256;2023-12-28T11:15:57;27.70;;;6.72;;
19569;SDS011;9931;51.458;7.256;2023-12-28T11:18:22;25.15;;;5.97;;
19569;SDS011;9931;51.458;7.256;2023-12-28T11:20:48;15.93;;;5.80;;
19569;SDS011;9931;51.458;7.256;2023-12-28T11:23:14;20.33;;;6.22;;
19569;SDS011;9931;51.458;7.256;2023-12-28T11:25:39;10.98;;;5.70;;
19569;SDS011;9931;51.458;7.256;2023-12-28T11:28:08;24.58;;;6.00;;
19569;SDS011;9931;51.458;7.256;2023-12-28T11:30:33;7.15;;;5.88;;
19569;SDS011;9931;51.458;7.256;2023-12-28T11:32:59;23.30;;;5.93;;
19569;SDS011;9931;51.458;7.256;2023-12-28T11:35:31;19.17;;;6.80;;
19569;SDS011;9931;51.458;7.256;2023-12-28T11:37:57;18.63;;;7.30;;
19569;SDS011;9931;51.458;7.256;2023-12-28T11:40:22;10.00;;;5.87;;
19569;SDS011;9931;51.458;7.256;2023-12-28T11:42:52;17.65;;;7.20;;
19569;SDS011;9931;51.458;7.256;2023-12-28T11:45:18;19.88;;;6.78;;
19569;SDS011;9931;51.458;7.256;2023-12-28T11:47:43;19.60;;;6.57;;
19569;SDS011;9931;51.458;7.256;2023-12-28T11:50:09;12.02;;;6.97;;
19569;SDS011;9931;51.458;7.256;2023-12-28T11:52:34;28.52;;;8.00;;
19569;SDS011;9931;51.458;7.256;2023-12-28T11:54:59;18.03;;;7.43;;
19569;SDS011;9931;51.458;7.256;2023-12-28T11:57:25;19.98;;;8.52;;
19569;SDS011;9931;51.458;7.256;2023-12-28T11:59:55;19.63;;;7.80;;
19569;SDS011;9931;51.458;7.256;2023-12-28T12:02:20;22.02;;;7.68;;
19569;SDS011;9931;51.458;7.256;2023-12-28T12:04:45;26.17;;;7.90;;
19569;SDS011;9931;51.458;7.256;2023-12-28T12:07:10;17.13;;;6.90;;
19569;SDS011;9931;51.458;7.256;2023-12-28T12:09:35;19.27;;;5.97;;
19569;SDS011;9931;51.458;7.256;2023-12-28T12:12:01;54.20;;;7.97;;
19569;SDS011;9931;51.458;7.256;2023-12-28T12:14:27;24.65;;;6.57;;
19569;SDS011;9931;51.458;7.256;2023-12-28T12:16:53;20.85;;;7.22;;
19569;SDS011;9931;51.458;7.256;2023-12-28T12:19:20;19.15;;;7.38;;
19569;SDS011;9931;51.458;7.256;2023-12-28T12:21:47;18.08;;;7.70;;
19569;SDS011;9931;51.458;7.256;2023-12-28T12:24:12;20.75;;;8.38;;
19569;SDS011;9931;51.458;7.256;2023-12-28T12:26:38;29.25;;;8.45;;
19569;SDS011;9931;51.458;7.256;2023-12-28T12:29:03;19.93;;;8.30;;
19569;SDS011;9931;51.458;7.256;2023-12-28T12:31:29;25.42;;;9.15;;
19569;SDS011;9931;51.458;7.256;2023-12-28T12:33:54;21.15;;;7.97;;
19569;SDS011;9931;51.458;7.256;2023-12-28T12:36:19;25.70;;;8.23;;
19569;SDS011;9931;51.458;7.256;2023-12-28T12:38:46;25.70;;;7.63;;
19569;SDS011;9931;51.458;7.256;2023-12-28T12:41:12;23.20;;;8.48;;
19569;SDS011;9931;51.458;7.256;2023-12-28T12:43:37;30.73;;;8.35;;
19569;SDS011;9931;51.458;7.256;2023-12-28T12:46:03;18.55;;;7.15;;
19569;SDS011;9931;51.458;7.256;2023-12-28T12:48:29;21.15;;;7.20;;
19569;SDS011;9931;51.458;7.256;2023-12-28T12:50:54;20.48;;;6.65;;
19569;SDS011;9931;51.458;7.256;2023-12-28T12:53:19;20.37;;;6.03;;
19569;SDS011;9931;51.458;7.256;2023-12-28T12:55:44;25.83;;;6.88;;
19569;SDS011;9931;51.458;7.256;2023-12-28T12:58:11;22.23;;;7.75;;
19569;SDS011;9931;51.458;7.256;2023-12-28T13:00:38;23.33;;;8.20;;
19569;SDS011;9931;51.458;7.256;2023-12-28T13:03:03;23.15;;;8.82;;
19569;SDS011;9931;51.458;7.256;2023-12-28T13:05:28;20.35;;;8.65;;
19569;SDS011;9931;51.458;7.256;2023-12-28T13:07:54;37.08;;;24.63;;
19569;SDS011;9931;51.458;7.256;2023-12-28T13:10:19;19.17;;;7.82;;
19569;SDS011;9931;51.458;7.256;2023-12-28T13:12:44;17.40;;;7.82;;
19569;SDS011;9931;51.458;7.256;2023-12-28T13:15:10;24.73;;;8.02;;
19569;SDS011;9931;51.458;7.256;2023-12-28T13:17:35;19.33;;;6.78;;
19569;SDS011;9931;51.458;7.256;2023-12-28T13:20:01;23.52;;;7.72;;
19569;SDS011;9931;51.458;7.256;2023-12-28T13:22:26;23.13;;;7.47;;
19569;SDS011;9931;51.458;7.256;2023-12-28T13:24:51;19.47;;;8.10;;
19569;SDS011;9931;51.458;7.256;2023-12-28T13:27:17;25.85;;;10.35;;
19569;SDS011;9931;51.458;7.256;2023-12-28T13:29:42;20.25;;;7.60;;
19569;SDS011;9931;51.458;7.256;2023-12-28T13:32:08;66.07;;;10.48;;
19569;SDS011;9931;51.458;7.256;2023-12-28T13:34:33;22.05;;;9.30;;
19569;SDS011;9931;51.458;7.256;2023-12-28T13:36:59;7.47;;;6.97;;
19569;SDS011;9931;51.458;7.256;2023-12-28T13:39:26;27.17;;;8.23;;
19569;SDS011;9931;51.458;7.256;2023-12-28T13:41:53;29.52;;;8.70;;
19569;SDS011;9931;51.458;7.256;2023-12-28T13:44:19;20.20;;;8.18;;
19569;SDS011;9931;51.458;7.256;2023-12-28T13:46:44;21.70;;;8.43;;
19569;SDS011;9931;51.458;7.256;2023-12-28T13:49:09;23.15;;;8.25;;
19569;SDS011;9931;51.458;7.256;2023-12-28T13:51:34;29.00;;;8.00;;
19569;SDS011;9931;51.458;7.256;2023-12-28T13:53:59;23.77;;;9.37;;
19569;SDS011;9931;51.458;7.256;2023-12-28T13:56:25;19.90;;;8.73;;
19569;SDS011;9931;51.458;7.256;2023-12-28T13:58:50;20.83;;;8.95;;
19569;SDS011;9931;51.458;7.256;2023-12-28T14:01:15;19.40;;;7.27;;
19569;SDS011;9931;51.458;7.256;2023-12-28T14:03:40;19.40;;;10.50;;
19569;SDS011;9931;51.458;7.256;2023-12-28T14:06:06;17.83;;;7.97;;
19569;SDS011;9931;51.458;7.256;2023-12-28T14:08:31;26.00;;;9.40;;
19569;SDS011;9931;51.458;7.256;2023-12-28T14:10:56;12.57;;;8.95;;
19569;SDS011;9931;51.458;7.256;2023-12-28T14:13:21;16.30;;;6.47;;
19569;SDS011;9931;51.458;7.256;2023-12-28T14:15:47;20.38;;;6.68;;
19569;SDS011;9931;51.458;7.256;2023-12-28T14:18:12;20.27;;;7.00;;
19569;SDS011;9931;51.458;7.256;2023-12-28T14:20:37;17.90;;;6.07;;
19569;SDS011;9931;51.458;7.256;2023-12-28T14:23:02;25.23;;;7.07;;
19569;SDS011;9931;51.458;7.256;2023-12-28T14:25:28;13.20;;;6.43;;
19569;SDS011;9931;51.458;7.256;2023-12-28T14:27:53;20.27;;;6.38;;
19569;SDS011;9931;51.458;7.256;2023-12-28T14:30:18;27.52;;;6.13;;
19569;SDS011;9931;51.458;7.256;2023-12-28T14:32:44;24.35;;;5.47;;
19569;SDS011;9931;51.458;7.256;2023-12-28T14:35:09;19.85;;;5.93;;
19569;SDS011;9931;51.458;7.256;2023-12-28T14:37:35;21.80;;;6.90;;
19569;SDS011;9931;51.458;7.256;2023-12-28T14:40:00;8.32;;;7.60;;
19569;SDS011;9931;51.458;7.256;2023-12-28T14:42:31;22.58;;;6.22;;